Time;durP1;ratioP1;P1;durP2;ratioP2;P2;SDS_P1;SDS_P2;PMS_P1;PMS_P2;Temp;Humidity;BMP_temperature;BMP_pressure;BME280_temperature;BME280_humidity;BME280_pressure;Samples;Min_cycle;Max_cycle;Signal;HPM_P1;HPM_P2
2022/04/01 00:01:38;;;;;;;3.03;1.33;;;1.00;99.90;;;;;;5026637;28;20559;-69
2022/04/01 00:04:04;;;;;;;4.40;1.73;;;1.00;99.90;;;;;;5022502;28;20042;-69
2022/04/01 00:06:30;;;;;;;3.33;1.75;;;1.10;99.90;;;;;;5020286;28;20045;-69
2022/04/01 00:08:55;;;;;;;6.70;1.73;;;1.00;99.90;;;;;;5023643;28;20045;-68
2022/04/01 00:11:21;;;;;;;2.50;1.20;;;1.10;99.90;;;;;;5020571;28;20806;-68
2022/04/01 00:13:46;;;;;;;3.78;0.85;;;1.10;99.90;;;;;;5022582;28;20579;-70
2022/04/01 00:16:21;;;;;;;2.97;0.90;;;1.20;99.90;;;;;;5018358;28;20050;-69
2022/04/01 00:18:47;;;;;;;3.60;1.25;;;1.00;99.90;;;;;;5018800;28;20044;-68
2022/04/01 00:21:12;;;;;;;2.65;1.27;;;1.20;99.90;;;;;;5020847;28;20033;-69
2022/04/01 00:23:38;;;;;;;3.40;0.80;;;1.20;99.90;;;;;;5025310;28;20049;-69
2022/04/01 00:26:03;;;;;;;6.50;0.93;;;1.20;99.90;;;;;;5020366;28;20046;-70
2022/04/01 00:28:29;;;;;;;3.38;1.15;;;1.20;99.90;;;;;;5020478;28;20049;-69
2022/04/01 00:30:55;;;;;;;2.60;1.05;;;1.10;99.90;;;;;;5021046;28;20046;-69
2022/04/01 00:33:21;;;;;;;5.90;1.00;;;1.20;99.90;;;;;;5022155;28;20392;-69
2022/04/01 00:35:46;;;;;;;6.30;1.17;;;1.40;99.90;;;;;;5022352;28;20033;-69
2022/04/01 00:38:12;;;;;;;1.55;0.77;;;1.20;99.90;;;;;;5018489;28;20033;-69
2022/04/01 00:40:39;;;;;;;2.67;1.05;;;1.20;99.90;;;;;;5024456;28;20036;-69
2022/04/01 00:43:05;;;;;;;2.95;1.25;;;1.20;99.90;;;;;;5023126;28;20057;-70
2022/04/01 00:45:31;;;;;;;2.53;1.05;;;1.20;99.90;;;;;;5019117;28;20053;-70
2022/04/01 00:48:02;;;;;;;3.42;1.05;;;1.20;99.90;;;;;;5021588;28;20087;-69
2022/04/01 00:50:29;;;;;;;2.95;0.88;;;1.20;99.90;;;;;;5021228;28;20052;-69
2022/04/01 00:52:54;;;;;;;1.67;0.80;;;1.30;99.90;;;;;;5022268;28;20637;-69
2022/04/01 00:55:21;;;;;;;6.28;1.05;;;1.30;99.90;;;;;;5022462;28;20083;-69
2022/04/01 00:57:47;;;;;;;3.08;0.80;;;1.40;99.90;;;;;;5019801;28;20036;-69
2022/04/01 01:00:13;;;;;;;5.10;1.42;;;1.30;99.90;;;;;;5018646;28;20041;-68
2022/04/01 01:02:39;;;;;;;6.57;0.75;;;1.40;99.90;;;;;;5019837;28;20048;-69
2022/04/01 01:05:05;;;;;;;2.15;0.70;;;1.40;99.90;;;;;;5020505;28;20052;-68
2022/04/01 01:07:31;;;;;;;2.92;0.90;;;1.40;99.90;;;;;;5020518;28;20495;-68
2022/04/01 01:09:57;;;;;;;1.70;0.82;;;1.40;99.90;;;;;;5023195;28;20042;-69
2022/04/01 01:12:25;;;;;;;3.53;0.73;;;1.40;99.90;;;;;;5018064;28;20041;-69
2022/04/01 01:14:50;;;;;;;1.98;0.80;;;1.50;99.90;;;;;;5020121;28;20064;-68
2022/04/01 01:17:16;;;;;;;3.88;1.63;;;1.50;99.90;;;;;;5021664;28;20033;-69
2022/04/01 01:19:45;;;;;;;3.33;0.73;;;1.50;99.90;;;;;;5020916;28;20034;-68
2022/04/01 01:22:12;;;;;;;1.17;0.65;;;1.60;99.90;;;;;;5021023;28;20042;-69
2022/04/01 01:24:41;;;;;;;3.78;0.60;;;1.50;99.90;;;;;;5024084;28;20393;-69
2022/04/01 01:27:08;;;;;;;2.22;1.30;;;1.70;99.90;;;;;;5023617;28;20053;-69
2022/04/01 01:29:40;;;;;;;2.90;0.68;;;1.50;99.90;;;;;;5021551;28;20049;-68
2022/04/01 01:32:09;;;;;;;4.50;0.82;;;1.50;99.90;;;;;;5024671;28;20041;-68
2022/04/01 01:34:35;;;;;;;3.13;0.70;;;1.60;99.90;;;;;;5021558;28;20137;-68
2022/04/01 01:37:04;;;;;;;3.17;1.10;;;1.80;99.90;;;;;;5021090;28;20125;-69
2022/04/01 01:39:30;;;;;;;5.13;1.30;;;1.70;99.90;;;;;;5020085;28;20072;-68
2022/04/01 01:41:56;;;;;;;2.97;1.02;;;1.70;99.90;;;;;;5016097;28;20069;-70
2022/04/01 01:44:23;;;;;;;2.55;0.90;;;1.70;99.90;;;;;;5018061;28;20520;-68
2022/04/01 01:46:49;;;;;;;1.45;0.60;;;1.60;99.90;;;;;;5016965;28;20060;-68
2022/04/01 01:49:15;;;;;;;1.23;0.47;;;1.70;99.90;;;;;;5018817;28;20485;-69
2022/04/01 01:54:44;;;;;;;1.77;0.82;;;1.70;99.90;;;;;;5022662;28;20041;-68
2022/04/01 01:57:16;;;;;;;2.97;0.80;;;1.60;99.90;;;;;;5020223;28;20127;-68
2022/04/01 01:59:43;;;;;;;0.98;0.60;;;1.50;99.90;;;;;;5018339;28;20069;-68
2022/04/01 02:02:09;;;;;;;4.97;1.10;;;1.50;99.90;;;;;;5018924;28;20038;-69
2022/04/01 02:04:35;;;;;;;1.50;0.70;;;1.40;99.90;;;;;;5022907;28;20076;-68
2022/04/01 02:07:03;;;;;;;2.17;0.73;;;1.40;99.90;;;;;;5021869;28;20041;-69
2022/04/01 02:09:28;;;;;;;2.97;0.85;;;1.50;99.90;;;;;;5027246;28;20041;-68
2022/04/01 02:11:54;;;;;;;3.22;1.00;;;1.50;99.90;;;;;;5023864;28;20042;-69
2022/04/01 02:14:20;;;;;;;3.28;0.82;;;1.50;99.90;;;;;;5022492;28;20128;-68
2022/04/01 02:16:45;;;;;;;3.40;1.08;;;1.40;99.90;;;;;;5024567;28;20514;-68
2022/04/01 02:19:11;;;;;;;4.15;0.90;;;1.60;99.90;;;;;;5019645;28;20456;-68
2022/04/01 02:21:37;;;;;;;4.55;0.80;;;1.50;99.90;;;;;;5025353;28;20518;-68
2022/04/01 02:24:06;;;;;;;2.00;0.75;;;1.40;99.90;;;;;;5023842;28;20041;-68
2022/04/01 02:26:34;;;;;;;1.63;0.57;;;1.50;99.90;;;;;;5021822;28;20041;-69
2022/04/01 02:29:03;;;;;;;4.38;0.55;;;1.60;99.90;;;;;;5019902;28;20049;-68
2022/04/01 02:31:28;;;;;;;4.45;0.50;;;1.60;99.90;;;;;;5027396;28;20041;-68
2022/04/01 02:33:54;;;;;;;1.67;1.02;;;1.60;99.90;;;;;;5021893;28;20392;-68
2022/04/01 02:36:20;;;;;;;1.83;0.82;;;1.60;99.90;;;;;;5017509;28;20038;-69
2022/04/01 02:38:45;;;;;;;10.45;1.00;;;1.60;99.90;;;;;;5022478;28;20123;-69
2022/04/01 02:41:14;;;;;;;2.15;0.85;;;1.80;99.90;;;;;;5023660;28;20082;-68
2022/04/01 02:43:40;;;;;;;2.65;1.23;;;1.60;99.90;;;;;;5022147;28;20045;-68
2022/04/01 02:46:06;;;;;;;3.22;0.77;;;1.50;99.90;;;;;;5019428;28;20053;-68
2022/04/01 02:48:32;;;;;;;2.42;0.80;;;1.50;99.90;;;;;;5020589;28;20052;-68
2022/04/01 02:50:58;;;;;;;2.42;0.80;;;1.50;99.90;;;;;;5024173;28;20055;-68
2022/04/01 02:53:23;;;;;;;2.45;0.80;;;1.50;99.90;;;;;;5023780;28;20052;-68
2022/04/01 02:55:50;;;;;;;2.13;0.90;;;1.60;99.90;;;;;;5021312;28;20037;-68
2022/04/01 02:58:16;;;;;;;1.85;0.80;;;1.60;99.90;;;;;;5022202;28;20153;-68
2022/04/01 03:00:41;;;;;;;1.42;0.60;;;1.60;99.90;;;;;;5021076;28;20088;-68
2022/04/01 03:03:09;;;;;;;2.22;0.60;;;1.50;99.90;;;;;;5022344;28;20049;-68
2022/04/01 03:05:39;;;;;;;3.72;1.30;;;1.60;99.90;;;;;;5024063;28;20128;-68
2022/04/01 03:08:05;;;;;;;3.08;0.60;;;1.60;99.90;;;;;;5022684;28;20034;-68
2022/04/01 03:10:36;;;;;;;1.48;0.60;;;1.70;99.90;;;;;;5021697;28;20121;-68
2022/04/01 03:13:02;;;;;;;1.77;0.70;;;1.70;99.90;;;;;;5020093;28;20525;-68
2022/04/01 03:15:28;;;;;;;1.60;0.65;;;1.70;99.90;;;;;;5023139;28;20515;-68
2022/04/01 03:17:58;;;;;;;2.13;0.68;;;1.70;99.90;;;;;;5022046;28;20046;-68
2022/04/01 03:20:25;;;;;;;2.65;0.85;;;1.70;99.90;;;;;;5019196;28;21381;-68
2022/04/01 03:22:52;;;;;;;5.30;0.60;;;1.70;99.90;;;;;;5020325;28;20044;-67
2022/04/01 03:25:19;;;;;;;1.45;0.38;;;1.70;99.90;;;;;;5007329;28;20042;-68
2022/04/01 03:27:48;;;;;;;2.08;1.17;;;1.70;99.90;;;;;;5021872;28;20034;-68
2022/04/01 03:30:16;;;;;;;1.67;0.65;;;1.80;99.90;;;;;;5026422;28;20077;-68
2022/04/01 03:32:43;;;;;;;1.30;0.50;;;1.80;99.90;;;;;;5024651;28;20742;-68
2022/04/01 03:35:12;;;;;;;3.13;0.68;;;1.90;99.90;;;;;;5023569;28;20526;-68
2022/04/01 03:37:37;;;;;;;1.33;0.65;;;1.80;99.90;;;;;;5003496;28;20033;-69
2022/04/01 03:40:04;;;;;;;3.38;0.98;;;1.90;99.90;;;;;;5023418;28;20458;-68
2022/04/01 03:42:31;;;;;;;4.55;0.63;;;1.80;99.90;;;;;;5018652;28;20042;-68
2022/04/01 03:45:01;;;;;;;2.55;0.52;;;1.80;99.90;;;;;;5020544;28;20056;-68
2022/04/01 03:47:36;;;;;;;2.13;0.77;;;1.80;99.90;;;;;;5021763;28;20049;-68
2022/04/01 03:50:04;;;;;;;1.50;0.53;;;1.80;99.90;;;;;;5021898;28;20063;-68
2022/04/01 03:52:32;;;;;;;5.70;1.25;;;1.80;99.90;;;;;;5022313;28;20065;-68
2022/04/01 03:55:03;;;;;;;1.83;0.52;;;1.90;99.90;;;;;;5023545;28;20088;-68
2022/04/01 03:57:38;;;;;;;2.00;0.60;;;1.90;99.90;;;;;;5021986;28;20033;-68
2022/04/01 04:00:07;;;;;;;0.82;0.30;;;1.90;99.90;;;;;;5019164;28;20037;-68
2022/04/01 04:02:34;;;;;;;2.72;0.73;;;1.80;99.90;;;;;;5024141;28;20091;-68
2022/04/01 04:05:01;;;;;;;1.80;0.60;;;1.90;99.90;;;;;;5019303;28;20121;-69
2022/04/01 04:07:27;;;;;;;1.15;0.43;;;1.90;99.90;;;;;;5019049;28;20060;-68
2022/04/01 04:09:53;;;;;;;3.30;0.73;;;1.90;99.90;;;;;;5023434;28;20037;-68
2022/04/01 04:12:22;;;;;;;1.90;0.40;;;1.90;99.90;;;;;;5018462;28;20093;-68
2022/04/01 04:14:52;;;;;;;1.45;0.50;;;1.90;99.90;;;;;;5021898;28;20041;-68
2022/04/01 04:17:53;;;;;;;1.95;0.65;;;1.90;99.90;;;;;;5020568;28;20037;-68
2022/04/01 04:20:39;;;;;;;1.25;0.47;;;1.90;99.90;;;;;;4977061;28;20507;-68
2022/04/01 04:23:19;;;;;;;2.50;0.30;;;1.90;99.90;;;;;;5020328;28;20480;-68
2022/04/01 04:26:13;;;;;;;4.68;0.90;;;1.90;99.90;;;;;;5021683;28;20048;-68
2022/04/01 04:28:44;;;;;;;3.28;0.70;;;2.00;99.90;;;;;;5016775;28;20080;-68
2022/04/01 04:31:13;;;;;;;0.82;0.50;;;1.90;99.90;;;;;;5021052;28;20111;-68
2022/04/01 04:33:45;;;;;;;3.50;0.40;;;1.90;99.90;;;;;;5022159;28;20053;-68
2022/04/01 04:36:14;;;;;;;3.50;0.52;;;2.00;99.90;;;;;;5020787;28;20112;-68
2022/04/01 04:38:43;;;;;;;2.30;0.65;;;2.00;99.90;;;;;;5020546;28;20046;-68
2022/04/01 04:41:09;;;;;;;4.78;0.80;;;2.00;99.90;;;;;;5021186;28;20044;-68
2022/04/01 04:43:38;;;;;;;4.43;0.90;;;2.00;99.90;;;;;;5022923;28;20041;-68
2022/04/01 04:46:06;;;;;;;1.63;0.45;;;2.00;99.90;;;;;;5018349;28;20053;-68
2022/04/01 04:48:34;;;;;;;2.00;0.77;;;2.00;99.90;;;;;;5023503;28;20128;-68
2022/04/01 04:51:04;;;;;;;5.28;0.70;;;2.00;99.90;;;;;;5021467;28;20116;-68
2022/04/01 04:53:34;;;;;;;2.80;0.68;;;2.00;99.90;;;;;;5022386;28;20049;-69
2022/04/01 04:56:04;;;;;;;2.15;0.40;;;2.00;99.90;;;;;;5022206;28;20044;-68
2022/04/01 04:58:40;;;;;;;1.70;0.30;;;2.10;99.90;;;;;;5023617;28;20531;-69
2022/04/01 05:01:42;;;;;;;2.42;0.52;;;2.20;99.90;;;;;;5020544;28;20049;-68
2022/04/01 05:04:39;;;;;;;2.60;0.47;;;2.20;99.90;;;;;;4996968;28;20064;-69
2022/04/01 05:07:15;;;;;;;;;;;2.20;99.90;;;;;;5018714;28;20607;-69
2022/04/01 05:10:08;;;;;;;1.08;0.30;;;2.20;99.90;;;;;;5022132;28;19920;-68
2022/04/01 05:12:51;;;;;;;2.33;0.43;;;2.20;99.90;;;;;;4986319;28;20045;-69
2022/04/01 05:15:26;;;;;;;5.15;0.50;;;2.20;99.90;;;;;;5036641;28;20134;-69
2022/04/01 05:18:10;;;;;;;1.73;0.60;;;2.20;99.90;;;;;;5020571;28;20495;-69
2022/04/01 05:21:10;;;;;;;2.67;0.30;;;2.10;99.90;;;;;;5018460;28;20030;-68
2022/04/01 05:23:54;;;;;;;2.78;0.32;;;2.10;99.90;;;;;;5007073;28;20107;-68
2022/04/01 05:26:25;;;;;;;1.80;0.40;;;2.30;99.90;;;;;;5019996;28;20116;-69
2022/04/01 05:29:00;;;;;;;2.03;0.35;;;2.30;99.90;;;;;;5021469;28;20530;-69
2022/04/01 05:31:25;;;;;;;1.83;0.63;;;2.20;99.90;;;;;;5022871;28;20591;-68
2022/04/01 05:34:05;;;;;;;4.38;0.30;;;2.20;99.90;;;;;;5022370;28;20386;-68
2022/04/01 05:36:31;;;;;;;2.97;0.70;;;2.20;99.90;;;;;;5006023;28;20496;-68
2022/04/01 05:38:58;;;;;;;5.35;1.55;;;2.20;99.90;;;;;;5019797;28;20045;-68
2022/04/01 05:41:24;;;;;;;4.40;1.30;;;2.30;99.90;;;;;;5014066;28;20045;-68
2022/04/01 05:43:50;;;;;;;1.48;0.40;;;2.40;99.90;;;;;;5019431;28;20484;-69
2022/04/01 05:46:19;;;;;;;3.97;0.40;;;2.30;99.90;;;;;;5019775;28;20044;-69
2022/04/01 05:48:46;;;;;;;2.65;0.52;;;2.20;99.90;;;;;;5019926;28;20148;-69
2022/04/01 05:51:14;;;;;;;4.85;1.40;;;2.30;99.90;;;;;;5020136;28;20037;-69
2022/04/01 05:53:45;;;;;;;2.40;0.85;;;2.30;99.90;;;;;;5020063;28;20053;-68
2022/04/01 05:56:12;;;;;;;4.68;0.85;;;2.30;99.90;;;;;;5018970;28;20065;-68
2022/04/01 05:58:40;;;;;;;1.67;0.65;;;2.20;99.90;;;;;;5018704;28;20095;-69
2022/04/01 06:01:17;;;;;;;1.52;0.30;;;2.30;99.90;;;;;;5019907;28;20034;-69
2022/04/01 06:04:02;;;;;;;1.70;0.60;;;2.30;99.90;;;;;;5023376;28;20132;-68
2022/04/01 06:06:31;;;;;;;1.85;0.52;;;2.30;99.90;;;;;;5019290;28;20049;-69
2022/04/01 06:09:06;;;;;;;3.33;0.70;;;2.40;99.90;;;;;;5018143;28;21004;-69
2022/04/01 06:11:36;;;;;;;3.38;0.57;;;2.40;99.90;;;;;;5018736;28;20128;-68
2022/04/01 06:14:11;;;;;;;4.72;0.75;;;2.40;99.90;;;;;;5019478;28;20103;-68
2022/04/01 06:17:02;;;;;;;2.13;0.50;;;2.50;99.90;;;;;;5018839;28;20041;-69
2022/04/01 06:19:44;;;;;;;3.08;0.50;;;2.50;99.90;;;;;;5016276;28;20083;-70
2022/04/01 06:22:14;;;;;;;4.38;0.47;;;2.50;99.90;;;;;;5021747;28;20038;-69
2022/04/01 06:24:45;;;;;;;3.33;0.40;;;2.60;99.90;;;;;;5015073;28;20033;-69
2022/04/01 06:27:14;;;;;;;1.60;0.38;;;2.70;99.90;;;;;;5016738;28;20057;-70
2022/04/01 06:29:47;;;;;;;2.17;0.43;;;2.90;99.90;;;;;;5019967;28;20053;-69
2022/04/01 06:32:21;;;;;;;2.25;0.50;;;3.00;99.90;;;;;;5019678;28;20037;-69
2022/04/01 06:35:04;;;;;;;2.88;0.40;;;3.10;99.90;;;;;;5020818;28;20080;-69
2022/04/01 06:37:41;;;;;;;2.42;0.50;;;3.10;99.90;;;;;;5020678;28;20128;-69
2022/04/01 06:40:12;;;;;;;0.95;0.25;;;3.00;99.90;;;;;;5022549;28;20029;-69
2022/04/01 06:42:40;;;;;;;1.08;0.50;;;3.00;99.90;;;;;;5021334;28;20048;-69
2022/04/01 06:45:08;;;;;;;3.10;0.30;;;3.00;99.90;;;;;;5019279;28;20084;-69
2022/04/01 06:47:35;;;;;;;2.92;0.32;;;3.00;99.90;;;;;;5019088;28;20496;-69
2022/04/01 06:50:01;;;;;;;4.63;0.32;;;3.10;99.90;;;;;;5018032;28;20042;-70
2022/04/01 06:52:27;;;;;;;1.65;0.32;;;3.00;99.90;;;;;;5022682;28;20049;-71
2022/04/01 06:54:53;;;;;;;3.35;0.40;;;2.90;99.90;;;;;;5021929;28;20033;-71
2022/04/01 06:57:20;;;;;;;2.85;0.30;;;3.00;99.90;;;;;;5019690;28;20041;-71
2022/04/01 06:59:46;;;;;;;3.47;0.50;;;3.00;99.90;;;;;;5021145;28;20037;-69
2022/04/01 07:02:11;;;;;;;1.38;0.30;;;3.00;99.90;;;;;;5023128;28;20030;-67
2022/04/01 07:04:37;;;;;;;1.70;0.32;;;3.00;99.90;;;;;;5022650;28;20034;-69
2022/04/01 07:07:04;;;;;;;2.28;0.60;;;3.00;99.90;;;;;;5021481;28;20128;-68
2022/04/01 07:09:31;;;;;;;1.98;0.50;;;3.00;99.90;;;;;;5014826;28;20045;-67
2022/04/01 07:12:01;;;;;;;3.70;0.35;;;3.10;99.90;;;;;;5023012;28;20080;-67
2022/04/01 07:14:31;;;;;;;1.58;0.55;;;3.10;99.90;;;;;;5023933;28;20204;-68
2022/04/01 07:17:00;;;;;;;3.38;0.57;;;3.00;99.90;;;;;;5021465;28;20111;-68
2022/04/01 07:19:26;;;;;;;1.38;0.40;;;3.00;99.90;;;;;;5021678;28;20467;-67
2022/04/01 07:21:52;;;;;;;0.50;0.32;;;3.10;99.90;;;;;;5022979;28;20034;-67
2022/04/01 07:24:17;;;;;;;4.25;0.52;;;3.00;99.90;;;;;;5023241;28;20543;-68
2022/04/01 07:26:44;;;;;;;2.50;0.50;;;3.10;99.90;;;;;;5024413;28;20068;-68
2022/04/01 07:29:10;;;;;;;4.35;0.55;;;3.00;99.90;;;;;;5020947;28;20057;-68
2022/04/01 07:34:39;;;;;;;5.55;1.20;;;3.00;99.90;;;;;;5022143;28;20056;-68
2022/04/01 07:37:05;;;;;;;1.05;0.30;;;3.10;99.90;;;;;;5022006;28;20041;-68
2022/04/01 07:39:31;;;;;;;3.55;0.40;;;3.00;99.90;;;;;;5019587;28;20043;-67
2022/04/01 07:41:57;;;;;;;3.42;0.60;;;3.00;99.90;;;;;;5022225;28;20042;-69
2022/04/01 07:44:23;;;;;;;4.07;0.70;;;2.90;99.90;;;;;;5024316;28;20487;-68
2022/04/01 07:46:50;;;;;;;2.65;0.30;;;2.90;99.90;;;;;;5021714;28;20042;-68
2022/04/01 07:49:17;;;;;;;1.55;0.45;;;3.00;99.90;;;;;;5020808;28;20489;-67
2022/04/01 07:51:43;;;;;;;7.28;0.95;;;2.90;99.90;;;;;;5024345;28;20072;-68
2022/04/01 07:54:14;;;;;;;2.83;0.47;;;3.00;99.90;;;;;;5021186;28;20033;-68
2022/04/01 07:56:41;;;;;;;1.50;0.32;;;3.00;99.90;;;;;;5019859;28;20475;-67
2022/04/01 07:59:08;;;;;;;1.75;0.50;;;3.00;99.90;;;;;;5020326;28;20038;-67
2022/04/01 08:01:35;;;;;;;2.28;0.40;;;3.00;99.90;;;;;;5018699;28;20038;-67
2022/04/01 08:04:00;;;;;;;1.67;0.60;;;2.90;99.90;;;;;;5020138;28;20073;-67
2022/04/01 08:06:26;;;;;;;2.50;0.47;;;2.90;99.90;;;;;;5023012;28;20080;-67
2022/04/01 08:08:55;;;;;;;2.90;0.70;;;3.00;99.90;;;;;;5020893;28;20236;-68
2022/04/01 08:11:23;;;;;;;4.95;1.48;;;2.80;99.90;;;;;;5019267;28;20647;-68
2022/04/01 08:13:49;;;;;;;1.42;0.73;;;2.80;99.90;;;;;;5022202;28;20076;-68
2022/04/01 08:16:15;;;;;;;5.78;0.77;;;2.90;99.90;;;;;;5019218;28;20502;-68
2022/04/01 08:18:40;;;;;;;2.47;0.52;;;3.00;99.90;;;;;;5021255;28;20049;-67
2022/04/01 08:21:07;;;;;;;3.25;0.80;;;2.90;99.90;;;;;;5019956;28;20037;-67
2022/04/01 08:23:35;;;;;;;2.92;0.70;;;2.80;99.90;;;;;;5003456;28;20522;-67
2022/04/01 08:26:02;;;;;;;5.18;1.65;;;2.80;99.90;;;;;;5019391;28;20042;-68
2022/04/01 08:28:28;;;;;;;3.83;1.00;;;2.60;99.90;;;;;;5020501;28;20045;-68
2022/04/01 08:30:53;;;;;;;2.22;0.55;;;2.60;99.90;;;;;;5022750;28;20510;-68
2022/04/01 08:33:20;;;;;;;3.22;1.00;;;2.70;99.90;;;;;;5022758;28;20040;-68
2022/04/01 08:35:47;;;;;;;4.07;1.27;;;2.70;99.90;;;;;;5017069;28;20052;-67
2022/04/01 08:38:12;;;;;;;2.80;0.95;;;2.70;99.90;;;;;;5021806;28;20172;-68
2022/04/01 08:40:38;;;;;;;3.50;1.48;;;2.80;99.90;;;;;;5019118;28;20150;-68
2022/04/01 08:43:04;;;;;;;6.28;2.47;;;2.80;99.90;;;;;;5021802;28;20142;-68
2022/04/01 08:45:33;;;;;;;2.28;1.63;;;2.80;99.90;;;;;;5019865;28;20131;-67
2022/04/01 08:47:59;;;;;;;4.45;2.13;;;2.90;99.90;;;;;;5021435;28;20056;-68
2022/04/01 08:50:25;;;;;;;2.67;2.00;;;2.80;99.90;;;;;;5017599;28;20045;-67
2022/04/01 08:52:50;;;;;;;2.95;1.73;;;2.80;99.90;;;;;;5021065;28;20033;-67
2022/04/01 08:55:16;;;;;;;7.47;2.08;;;2.80;99.90;;;;;;5018420;28;20046;-67
2022/04/01 08:57:43;;;;;;;4.97;2.33;;;2.80;99.90;;;;;;5016708;28;20045;-68
2022/04/01 09:00:14;;;;;;;4.13;2.35;;;2.70;99.90;;;;;;5033926;28;20049;-68
2022/04/01 09:02:57;;;;;;;3.22;2.00;;;2.70;99.90;;;;;;5018530;28;20036;-67
2022/04/01 09:05:23;;;;;;;3.67;2.10;;;2.70;99.90;;;;;;5021956;28;20057;-69
2022/04/01 09:08:07;;;;;;;4.88;3.00;;;2.70;99.90;;;;;;5020234;28;20041;-67
2022/04/01 09:11:00;;;;;;;3.85;2.47;;;2.70;99.90;;;;;;5018774;28;20053;-67
2022/04/01 09:13:29;;;;;;;10.95;2.67;;;2.80;99.90;;;;;;5022658;28;20180;-67
2022/04/01 09:15:56;;;;;;;5.40;2.80;;;2.90;99.90;;;;;;5017957;28;20053;-69
2022/04/01 09:18:40;;;;;;;2.97;2.00;;;3.00;99.90;;;;;;5020650;28;20038;-68
2022/04/01 09:21:08;;;;;;;7.90;3.17;;;2.90;99.90;;;;;;5018722;28;20103;-69
2022/04/01 09:23:34;;;;;;;5.63;2.47;;;2.80;99.90;;;;;;5020480;28;20034;-68
2022/04/01 09:26:01;;;;;;;3.88;3.03;;;2.80;99.90;;;;;;5019373;28;20124;-68
2022/04/01 09:28:32;;;;;;;4.55;2.28;;;2.90;99.90;;;;;;5019984;28;20033;-70
2022/04/01 09:31:09;;;;;;;8.13;2.70;;;3.00;99.90;;;;;;5019697;28;20388;-68
2022/04/01 09:33:45;;;;;;;4.80;2.78;;;3.10;99.90;;;;;;5018252;28;20044;-67
2022/04/01 09:36:15;;;;;;;6.82;2.78;;;3.20;99.90;;;;;;5017972;28;20475;-68
2022/04/01 09:38:51;;;;;;;7.00;2.90;;;3.30;99.90;;;;;;5018150;28;20041;-67
2022/04/01 09:41:19;;;;;;;4.90;2.58;;;3.30;99.90;;;;;;5005751;28;20076;-68
2022/04/01 09:43:44;;;;;;;4.13;2.95;;;3.30;99.90;;;;;;5020661;28;20045;-68
2022/04/01 09:46:25;;;;;;;3.42;2.22;;;3.40;99.90;;;;;;5019114;28;20049;-68
2022/04/01 09:48:56;;;;;;;3.97;2.47;;;3.40;99.90;;;;;;5020567;28;20133;-66
2022/04/01 09:51:23;;;;;;;10.00;3.38;;;3.30;99.90;;;;;;5019335;28;20040;-68
2022/04/01 09:53:53;;;;;;;5.07;3.00;;;3.40;99.90;;;;;;5020888;28;20041;-67
2022/04/01 09:56:44;;;;;;;6.53;2.50;;;3.40;99.90;;;;;;5020747;28;20646;-67
2022/04/01 09:59:12;;;;;;;5.20;2.58;;;3.50;99.90;;;;;;5019062;28;20069;-68
2022/04/01 10:01:40;;;;;;;4.55;2.20;;;3.50;99.90;;;;;;5016392;28;20042;-69
2022/04/01 10:04:06;;;;;;;4.65;2.22;;;3.50;99.90;;;;;;5021152;28;20050;-66
2022/04/01 10:06:33;;;;;;;3.50;2.53;;;3.40;99.90;;;;;;5005771;28;20049;-66
2022/04/01 10:09:02;;;;;;;3.00;2.30;;;3.40;99.90;;;;;;4999407;28;20049;-66
2022/04/01 10:11:30;;;;;;;2.88;1.73;;;3.50;99.90;;;;;;5021811;28;20411;-67
2022/04/01 10:14:02;;;;;;;4.07;1.77;;;3.60;99.90;;;;;;5019217;28;20077;-68
2022/04/01 10:16:29;;;;;;;2.92;1.30;;;3.70;99.90;;;;;;5020108;28;20041;-67
2022/04/01 10:18:59;;;;;;;2.22;1.60;;;3.60;99.90;;;;;;5019911;28;20064;-67
2022/04/01 10:21:25;;;;;;;2.97;1.30;;;3.60;99.90;;;;;;5021274;28;20041;-67
2022/04/01 10:24:10;;;;;;;3.65;1.42;;;3.50;99.90;;;;;;5007375;28;20057;-67
2022/04/01 10:26:40;;;;;;;3.10;1.65;;;3.40;99.90;;;;;;5024391;28;20046;-67
2022/04/01 10:29:07;;;;;;;5.40;2.30;;;3.40;99.90;;;;;;5018634;28;20079;-67
2022/04/01 10:31:33;;;;;;;4.82;1.70;;;3.40;99.90;;;;;;5026029;28;20037;-67
2022/04/01 10:34:40;;;;;;;3.03;1.60;;;3.60;99.90;;;;;;5024276;28;20037;-67
2022/04/01 10:37:13;;;;;;;5.28;1.27;;;3.50;99.90;;;;;;5022922;28;20033;-68
2022/04/01 10:42:48;;;;;;;2.20;1.10;;;3.60;99.90;;;;;;5022649;28;20092;-67
2022/04/01 10:45:17;;;;;;;4.75;1.30;;;3.70;99.90;;;;;;5022528;28;20515;-67
2022/04/01 10:53:46;;;;;;;3.15;1.00;;;3.70;99.90;;;;;;5022296;28;20053;-68
2022/04/01 10:56:23;;;;;;;3.20;0.88;;;3.70;99.90;;;;;;5024411;28;21649;-67
2022/04/01 10:59:15;;;;;;;6.03;1.73;;;3.80;99.90;;;;;;5020734;28;20042;-67
2022/04/01 11:01:53;;;;;;;3.08;1.35;;;3.90;99.90;;;;;;5020006;28;20041;-67
2022/04/01 11:04:18;;;;;;;3.58;0.90;;;4.00;99.90;;;;;;5020904;28;20045;-67
2022/04/01 11:06:56;;;;;;;3.03;1.00;;;4.10;99.90;;;;;;5024105;28;20533;-68
2022/04/01 11:09:40;;;;;;;3.20;1.98;;;4.10;99.90;;;;;;5022406;28;20792;-67
2022/04/01 11:12:15;;;;;;;3.92;1.63;;;4.10;99.90;;;;;;5023282;28;20056;-68
2022/04/01 11:15:19;;;;;;;5.63;1.00;;;3.90;99.90;;;;;;5023040;28;20042;-69
2022/04/01 11:17:45;;;;;;;2.55;1.30;;;3.80;99.90;;;;;;5022257;28;20064;-69
2022/04/01 11:20:22;;;;;;;2.53;1.20;;;3.70;99.90;;;;;;5022175;28;20766;-67
2022/04/01 11:22:54;;;;;;;2.97;1.10;;;3.60;99.90;;;;;;5020596;28;20061;-67
2022/04/01 11:25:27;;;;;;;2.28;1.20;;;3.60;99.90;;;;;;5023660;28;20733;-68
2022/04/01 11:28:14;;;;;;;6.32;1.23;;;3.60;99.90;;;;;;5037488;28;20128;-69
2022/04/01 11:30:40;;;;;;;4.00;1.10;;;3.50;99.90;;;;;;5019814;28;20041;-67
2022/04/01 11:33:17;;;;;;;3.60;1.05;;;3.40;99.90;;;;;;5020925;28;20501;-69
2022/04/01 11:35:44;;;;;;;5.53;1.08;;;3.40;99.90;;;;;;5022182;28;20558;-67
2022/04/01 11:38:21;;;;;;;2.47;0.82;;;3.50;99.90;;;;;;5024484;28;20807;-68
2022/04/01 11:40:50;;;;;;;2.70;0.75;;;3.50;99.90;;;;;;5022255;28;20034;-67
2022/04/01 11:43:17;;;;;;;1.92;0.50;;;3.50;99.90;;;;;;5021883;28;20046;-68
2022/04/01 11:45:47;;;;;;;1.88;0.85;;;3.60;99.90;;;;;;5021439;28;20051;-67
2022/04/01 11:48:29;;;;;;;1.88;0.85;;;3.50;99.90;;;;;;5019695;28;20050;-67
2022/04/01 11:51:04;;;;;;;2.50;0.82;;;3.50;99.90;;;;;;5018058;28;20041;-67
2022/04/01 11:53:35;;;;;;;1.30;0.70;;;3.60;99.90;;;;;;5020126;28;20045;-67
2022/04/01 11:56:02;;;;;;;3.15;0.82;;;3.70;99.90;;;;;;5019896;28;20120;-66
2022/04/01 11:58:49;;;;;;;2.80;0.60;;;3.80;99.90;;;;;;5020488;28;20045;-67
2022/04/01 12:01:19;;;;;;;3.08;0.90;;;4.00;99.90;;;;;;5021431;28;20048;-67
2022/04/01 12:03:45;;;;;;;1.35;0.52;;;4.00;99.90;;;;;;5023734;28;20493;-66
2022/04/01 12:09:04;;;;;;;1.73;0.80;;;4.10;99.90;;;;;;5021823;28;20042;-66
2022/04/01 12:11:30;;;;;;;1.65;0.50;;;4.00;99.90;;;;;;5021869;28;20034;-66
2022/04/01 12:13:56;;;;;;;4.07;0.73;;;4.10;99.90;;;;;;5024774;28;20906;-66
2022/04/01 12:16:24;;;;;;;2.92;1.00;;;4.20;99.90;;;;;;5022449;28;20037;-67
2022/04/01 12:18:50;;;;;;;1.70;0.82;;;4.30;99.90;;;;;;5021300;28;20064;-66
2022/04/01 12:21:21;;;;;;;1.73;0.57;;;4.10;99.90;;;;;;5020231;28;20033;-65
2022/04/01 12:23:49;;;;;;;1.40;0.63;;;4.10;99.90;;;;;;5023416;28;20129;-66
2022/04/01 12:26:20;;;;;;;1.27;0.55;;;4.00;99.90;;;;;;5022344;28;20411;-66
2022/04/01 12:28:49;;;;;;;4.43;1.15;;;4.00;99.90;;;;;;5021137;28;20132;-67
2022/04/01 12:31:26;;;;;;;3.92;0.80;;;4.10;99.90;;;;;;5019757;28;20079;-67
2022/04/01 12:33:55;;;;;;;4.20;0.60;;;4.20;99.90;;;;;;5020784;28;20933;-67
2022/04/01 12:36:38;;;;;;;2.95;0.80;;;4.20;99.90;;;;;;5020221;28;20034;-67
2022/04/01 12:39:06;;;;;;;7.90;0.82;;;4.20;99.90;;;;;;5022043;28;20041;-67
2022/04/01 12:41:32;;;;;;;4.13;1.25;;;4.20;99.90;;;;;;5021147;28;20255;-66
2022/04/01 12:44:00;;;;;;;2.90;0.90;;;4.20;99.90;;;;;;5021131;28;20136;-67
2022/04/01 12:46:36;;;;;;;2.63;1.08;;;4.30;99.90;;;;;;5016113;28;20095;-67
2022/04/01 12:49:13;;;;;;;3.90;0.82;;;4.30;99.90;;;;;;5018850;28;20483;-67
2022/04/01 12:51:49;;;;;;;2.67;1.13;;;4.90;99.90;;;;;;5017736;28;20048;-67
2022/04/01 12:54:28;;;;;;;2.85;0.80;;;4.50;99.90;;;;;;5019290;28;20505;-67
2022/04/01 12:56:55;;;;;;;3.65;0.95;;;4.50;99.90;;;;;;5020830;28;20041;-67
2022/04/01 12:59:23;;;;;;;2.00;0.95;;;4.80;99.90;;;;;;5021382;28;20045;-67
2022/04/01 13:02:16;;;;;;;4.63;1.05;;;4.80;99.90;;;;;;5018908;28;20045;-67
2022/04/01 13:04:45;;;;;;;3.50;1.02;;;5.00;99.90;;;;;;5033045;28;20065;-67
2022/04/01 13:07:35;;;;;;;2.08;0.70;;;5.20;99.90;;;;;;5020750;28;20132;-67
2022/04/01 13:10:17;;;;;;;3.22;0.80;;;5.10;99.90;;;;;;5020558;28;20065;-67
2022/04/01 13:12:46;;;;;;;2.72;0.90;;;5.20;99.90;;;;;;5021442;28;20099;-67
2022/04/01 13:15:15;;;;;;;1.65;0.55;;;5.30;99.90;;;;;;5005143;28;20045;-67
2022/04/01 13:17:55;;;;;;;1.60;0.88;;;5.20;99.90;;;;;;5018963;28;20467;-67
2022/04/01 13:20:26;;;;;;;3.90;0.93;;;5.30;99.90;;;;;;5020036;28;20050;-67
2022/04/01 13:22:53;;;;;;;1.65;0.73;;;5.30;99.90;;;;;;5022615;28;20059;-68
2022/04/01 13:25:19;;;;;;;1.25;0.85;;;5.30;99.90;;;;;;5020873;28;20052;-67
2022/04/01 13:27:46;;;;;;;3.33;0.80;;;5.30;99.90;;;;;;5007185;28;20048;-66
2022/04/01 13:30:13;;;;;;;3.53;0.98;;;5.20;99.90;;;;;;5019335;28;20093;-67
2022/04/01 13:32:39;;;;;;;4.55;1.13;;;5.20;99.90;;;;;;5020616;28;20056;-66